sensor_id;sensor_type;location;lat;lon;timestamp;temperature;humidity
4374;DHT22;2201;51.100;6.814;2022-12-18T00:01:57;-3.40;98.20
4374;DHT22;2201;51.100;6.814;2022-12-18T00:04:26;-3.40;98.20
4374;DHT22;2201;51.100;6.814;2022-12-18T00:06:54;-3.40;98.20
4374;DHT22;2201;51.100;6.814;2022-12-18T00:09:20;-3.40;98.20
4374;DHT22;2201;51.100;6.814;2022-12-18T00:11:47;-3.40;98.20
4374;DHT22;2201;51.100;6.814;2022-12-18T00:14:15;-3.40;98.20
4374;DHT22;2201;51.100;6.814;2022-12-18T00:16:44;-3.40;98.20
4374;DHT22;2201;51.100;6.814;2022-12-18T00:19:11;-3.40;98.20
4374;DHT22;2201;51.100;6.814;2022-12-18T00:21:39;-3.50;98.20
4374;DHT22;2201;51.100;6.814;2022-12-18T00:24:06;-3.50;98.20
4374;DHT22;2201;51.100;6.814;2022-12-18T00:26:35;-3.50;98.20
4374;DHT22;2201;51.100;6.814;2022-12-18T00:29:04;-3.50;98.20
4374;DHT22;2201;51.100;6.814;2022-12-18T00:31:31;-3.40;98.20
4374;DHT22;2201;51.100;6.814;2022-12-18T00:33:59;-3.40;98.20
4374;DHT22;2201;51.100;6.814;2022-12-18T00:38:56;-3.40;98.20
4374;DHT22;2201;51.100;6.814;2022-12-18T00:41:23;-3.40;98.20
4374;DHT22;2201;51.100;6.814;2022-12-18T00:44:10;-3.40;98.20
4374;DHT22;2201;51.100;6.814;2022-12-18T00:46:37;-3.40;98.20
4374;DHT22;2201;51.100;6.814;2022-12-18T00:49:04;-3.40;98.20
4374;DHT22;2201;51.100;6.814;2022-12-18T00:51:31;-3.40;98.20
4374;DHT22;2201;51.100;6.814;2022-12-18T00:53:59;-3.30;98.20
4374;DHT22;2201;51.100;6.814;2022-12-18T00:56:26;-3.40;98.20
4374;DHT22;2201;51.100;6.814;2022-12-18T00:58:52;-3.40;98.20
4374;DHT22;2201;51.100;6.814;2022-12-18T01:01:19;-3.40;98.20
4374;DHT22;2201;51.100;6.814;2022-12-18T01:03:46;-3.40;98.20
4374;DHT22;2201;51.100;6.814;2022-12-18T01:06:13;-3.40;98.20
4374;DHT22;2201;51.100;6.814;2022-12-18T01:08:40;-3.40;98.20
4374;DHT22;2201;51.100;6.814;2022-12-18T01:11:10;-3.40;98.20
4374;DHT22;2201;51.100;6.814;2022-12-18T01:13:37;-3.40;98.20
4374;DHT22;2201;51.100;6.814;2022-12-18T01:16:05;-3.40;98.20
4374;DHT22;2201;51.100;6.814;2022-12-18T01:18:31;-3.40;98.20
4374;DHT22;2201;51.100;6.814;2022-12-18T01:20:58;-3.40;98.20
4374;DHT22;2201;51.100;6.814;2022-12-18T01:23:25;-3.40;98.20
4374;DHT22;2201;51.100;6.814;2022-12-18T01:25:52;-3.40;98.20
4374;DHT22;2201;51.100;6.814;2022-12-18T01:28:20;-3.40;98.20
4374;DHT22;2201;51.100;6.814;2022-12-18T01:30:47;-3.40;98.20
4374;DHT22;2201;51.100;6.814;2022-12-18T01:33:14;-3.40;98.20
4374;DHT22;2201;51.100;6.814;2022-12-18T01:35:41;-3.40;98.20
4374;DHT22;2201;51.100;6.814;2022-12-18T01:38:08;-3.40;98.20
4374;DHT22;2201;51.100;6.814;2022-12-18T01:40:35;-3.40;98.20
4374;DHT22;2201;51.100;6.814;2022-12-18T01:43:02;-3.40;98.20
4374;DHT22;2201;51.100;6.814;2022-12-18T01:45:32;-3.40;98.20
4374;DHT22;2201;51.100;6.814;2022-12-18T01:48:00;-3.40;98.20
4374;DHT22;2201;51.100;6.814;2022-12-18T01:50:31;-3.40;98.20
4374;DHT22;2201;51.100;6.814;2022-12-18T01:53:02;-3.40;98.20
4374;DHT22;2201;51.100;6.814;2022-12-18T01:55:32;-3.40;98.20
4374;DHT22;2201;51.100;6.814;2022-12-18T01:58:01;-3.40;98.20
4374;DHT22;2201;51.100;6.814;2022-12-18T02:00:30;-3.30;98.20
4374;DHT22;2201;51.100;6.814;2022-12-18T02:02:57;-3.30;98.20
4374;DHT22;2201;51.100;6.814;2022-12-18T02:05:31;-3.30;98.20
4374;DHT22;2201;51.100;6.814;2022-12-18T02:08:06;-3.30;98.20
4374;DHT22;2201;51.100;6.814;2022-12-18T02:10:42;-3.30;98.20
4374;DHT22;2201;51.100;6.814;2022-12-18T02:13:17;-3.20;98.20
4374;DHT22;2201;51.100;6.814;2022-12-18T02:15:54;-3.20;98.20
4374;DHT22;2201;51.100;6.814;2022-12-18T02:18:24;-3.20;98.20
4374;DHT22;2201;51.100;6.814;2022-12-18T02:20:57;-3.20;98.20
4374;DHT22;2201;51.100;6.814;2022-12-18T02:23:42;-3.20;98.20
4374;DHT22;2201;51.100;6.814;2022-12-18T02:26:18;-3.20;98.20
4374;DHT22;2201;51.100;6.814;2022-12-18T02:28:53;-3.20;98.20
4374;DHT22;2201;51.100;6.814;2022-12-18T02:31:23;-3.20;98.20
4374;DHT22;2201;51.100;6.814;2022-12-18T02:33:53;-3.20;98.20
4374;DHT22;2201;51.100;6.814;2022-12-18T02:36:24;-3.20;98.20
4374;DHT22;2201;51.100;6.814;2022-12-18T02:38:52;-3.20;98.20
4374;DHT22;2201;51.100;6.814;2022-12-18T02:41:23;-3.20;98.20
4374;DHT22;2201;51.100;6.814;2022-12-18T02:43:55;-3.20;98.20
4374;DHT22;2201;51.100;6.814;2022-12-18T02:46:33;-3.20;98.20
4374;DHT22;2201;51.100;6.814;2022-12-18T02:49:06;-3.20;98.20
4374;DHT22;2201;51.100;6.814;2022-12-18T02:51:47;-3.20;98.20
4374;DHT22;2201;51.100;6.814;2022-12-18T02:54:27;-3.10;98.20
4374;DHT22;2201;51.100;6.814;2022-12-18T02:57:06;-3.10;98.20
4374;DHT22;2201;51.100;6.814;2022-12-18T02:59:41;-3.10;98.20
4374;DHT22;2201;51.100;6.814;2022-12-18T03:02:20;-3.00;98.20
4374;DHT22;2201;51.100;6.814;2022-12-18T03:04:50;-3.00;98.20
4374;DHT22;2201;51.100;6.814;2022-12-18T03:07:34;-3.00;98.20
4374;DHT22;2201;51.100;6.814;2022-12-18T03:10:01;-3.00;98.20
4374;DHT22;2201;51.100;6.814;2022-12-18T03:12:31;-3.00;98.20
4374;DHT22;2201;51.100;6.814;2022-12-18T03:15:02;-3.00;98.20
4374;DHT22;2201;51.100;6.814;2022-12-18T03:17:32;-3.00;98.20
4374;DHT22;2201;51.100;6.814;2022-12-18T03:20:03;-3.00;98.20
4374;DHT22;2201;51.100;6.814;2022-12-18T03:22:33;-3.00;98.20
4374;DHT22;2201;51.100;6.814;2022-12-18T03:25:02;-3.00;98.20
4374;DHT22;2201;51.100;6.814;2022-12-18T03:27:33;-3.00;98.20
4374;DHT22;2201;51.100;6.814;2022-12-18T03:30:03;-3.00;98.20
4374;DHT22;2201;51.100;6.814;2022-12-18T03:32:38;-3.00;98.20
4374;DHT22;2201;51.100;6.814;2022-12-18T03:35:06;-3.00;98.20
4374;DHT22;2201;51.100;6.814;2022-12-18T03:37:34;-3.00;98.20
4374;DHT22;2201;51.100;6.814;2022-12-18T03:40:01;-3.00;98.20
4374;DHT22;2201;51.100;6.814;2022-12-18T03:42:32;-3.00;98.20
4374;DHT22;2201;51.100;6.814;2022-12-18T03:45:08;-3.00;98.20
4374;DHT22;2201;51.100;6.814;2022-12-18T03:47:39;-3.00;98.20
4374;DHT22;2201;51.100;6.814;2022-12-18T03:50:11;-3.00;98.20
4374;DHT22;2201;51.100;6.814;2022-12-18T03:52:44;-2.90;98.20
4374;DHT22;2201;51.100;6.814;2022-12-18T03:55:13;-2.90;98.20
4374;DHT22;2201;51.100;6.814;2022-12-18T03:57:42;-3.00;98.20
4374;DHT22;2201;51.100;6.814;2022-12-18T04:00:11;-3.00;98.20
4374;DHT22;2201;51.100;6.814;2022-12-18T04:02:41;-3.00;98.20
4374;DHT22;2201;51.100;6.814;2022-12-18T04:05:10;-3.00;98.20
4374;DHT22;2201;51.100;6.814;2022-12-18T04:07:37;-3.00;98.20
4374;DHT22;2201;51.100;6.814;2022-12-18T04:10:06;-3.00;98.20
4374;DHT22;2201;51.100;6.814;2022-12-18T04:12:33;-3.00;98.20
4374;DHT22;2201;51.100;6.814;2022-12-18T04:15:01;-3.00;98.20
4374;DHT22;2201;51.100;6.814;2022-12-18T04:17:28;-3.10;98.20
4374;DHT22;2201;51.100;6.814;2022-12-18T04:19:55;-3.10;98.20
4374;DHT22;2201;51.100;6.814;2022-12-18T04:22:21;-3.10;98.20
4374;DHT22;2201;51.100;6.814;2022-12-18T04:24:48;-3.10;98.20
4374;DHT22;2201;51.100;6.814;2022-12-18T04:27:15;-3.10;98.20
4374;DHT22;2201;51.100;6.814;2022-12-18T04:29:42;-3.00;98.20
4374;DHT22;2201;51.100;6.814;2022-12-18T04:32:10;-3.00;98.20
4374;DHT22;2201;51.100;6.814;2022-12-18T04:34:37;-3.00;98.20
4374;DHT22;2201;51.100;6.814;2022-12-18T04:37:03;-3.00;98.20
4374;DHT22;2201;51.100;6.814;2022-12-18T04:39:30;-3.00;98.20
4374;DHT22;2201;51.100;6.814;2022-12-18T04:42:00;-3.10;98.20
4374;DHT22;2201;51.100;6.814;2022-12-18T04:44:26;-3.10;98.20
4374;DHT22;2201;51.100;6.814;2022-12-18T04:46:53;-3.10;98.20
4374;DHT22;2201;51.100;6.814;2022-12-18T04:49:22;-3.10;98.20
4374;DHT22;2201;51.100;6.814;2022-12-18T04:51:49;-3.10;98.20
4374;DHT22;2201;51.100;6.814;2022-12-18T04:54:21;-3.20;98.20
4374;DHT22;2201;51.100;6.814;2022-12-18T04:56:48;-3.20;98.20
4374;DHT22;2201;51.100;6.814;2022-12-18T04:59:15;-3.20;98.20
4374;DHT22;2201;51.100;6.814;2022-12-18T05:01:42;-3.30;98.20
4374;DHT22;2201;51.100;6.814;2022-12-18T05:04:09;-3.30;98.20
4374;DHT22;2201;51.100;6.814;2022-12-18T05:06:37;-3.30;98.20
4374;DHT22;2201;51.100;6.814;2022-12-18T05:09:03;-3.40;98.20
4374;DHT22;2201;51.100;6.814;2022-12-18T05:11:30;-3.40;98.20
4374;DHT22;2201;51.100;6.814;2022-12-18T05:13:57;-3.40;98.20
4374;DHT22;2201;51.100;6.814;2022-12-18T05:16:24;-3.40;98.20
4374;DHT22;2201;51.100;6.814;2022-12-18T05:18:50;-3.50;98.20
4374;DHT22;2201;51.100;6.814;2022-12-18T05:21:17;-3.50;98.20
4374;DHT22;2201;51.100;6.814;2022-12-18T05:23:48;-3.50;98.20
4374;DHT22;2201;51.100;6.814;2022-12-18T05:26:17;-3.40;98.20
4374;DHT22;2201;51.100;6.814;2022-12-18T05:28:44;-3.40;98.20
4374;DHT22;2201;51.100;6.814;2022-12-18T05:31:11;-3.40;98.20
4374;DHT22;2201;51.100;6.814;2022-12-18T05:33:38;-3.40;98.20
4374;DHT22;2201;51.100;6.814;2022-12-18T05:36:07;-3.40;98.20
4374;DHT22;2201;51.100;6.814;2022-12-18T05:38:35;-3.40;98.20
4374;DHT22;2201;51.100;6.814;2022-12-18T05:41:04;-3.40;98.20
4374;DHT22;2201;51.100;6.814;2022-12-18T05:43:31;-3.40;98.20
4374;DHT22;2201;51.100;6.814;2022-12-18T05:46:04;-3.40;98.20
4374;DHT22;2201;51.100;6.814;2022-12-18T05:48:31;-3.40;98.20
4374;DHT22;2201;51.100;6.814;2022-12-18T05:51:04;-3.40;98.20
4374;DHT22;2201;51.100;6.814;2022-12-18T05:53:31;-3.40;98.20
4374;DHT22;2201;51.100;6.814;2022-12-18T05:56:00;-3.40;98.20
4374;DHT22;2201;51.100;6.814;2022-12-18T05:58:28;-3.40;98.20
4374;DHT22;2201;51.100;6.814;2022-12-18T06:00:55;-3.30;98.20
4374;DHT22;2201;51.100;6.814;2022-12-18T06:03:22;-3.30;98.20
4374;DHT22;2201;51.100;6.814;2022-12-18T06:05:49;-3.30;98.20
4374;DHT22;2201;51.100;6.814;2022-12-18T06:08:15;-3.20;98.20
4374;DHT22;2201;51.100;6.814;2022-12-18T06:10:49;-3.20;98.20
4374;DHT22;2201;51.100;6.814;2022-12-18T06:13:16;-3.10;98.20
4374;DHT22;2201;51.100;6.814;2022-12-18T06:15:44;-3.10;98.20
4374;DHT22;2201;51.100;6.814;2022-12-18T06:18:11;-3.10;98.20
4374;DHT22;2201;51.100;6.814;2022-12-18T06:20:38;-3.10;98.20
4374;DHT22;2201;51.100;6.814;2022-12-18T06:23:05;-3.10;98.20
4374;DHT22;2201;51.100;6.814;2022-12-18T06:25:32;-3.10;98.20
4374;DHT22;2201;51.100;6.814;2022-12-18T06:27:58;-3.10;98.20
4374;DHT22;2201;51.100;6.814;2022-12-18T06:30:26;-3.10;98.20
4374;DHT22;2201;51.100;6.814;2022-12-18T06:32:54;-3.10;98.20
4374;DHT22;2201;51.100;6.814;2022-12-18T06:35:21;-3.20;98.20
4374;DHT22;2201;51.100;6.814;2022-12-18T06:37:47;-3.20;98.20
4374;DHT22;2201;51.100;6.814;2022-12-18T06:40:14;-3.20;98.20
4374;DHT22;2201;51.100;6.814;2022-12-18T06:42:41;-3.20;98.20
4374;DHT22;2201;51.100;6.814;2022-12-18T06:45:08;-3.20;98.20
4374;DHT22;2201;51.100;6.814;2022-12-18T06:47:36;-3.20;98.20
4374;DHT22;2201;51.100;6.814;2022-12-18T06:50:05;-3.20;98.20
4374;DHT22;2201;51.100;6.814;2022-12-18T06:52:32;-3.30;98.20
4374;DHT22;2201;51.100;6.814;2022-12-18T06:54:59;-3.30;98.20
4374;DHT22;2201;51.100;6.814;2022-12-18T06:57:26;-3.30;98.20
4374;DHT22;2201;51.100;6.814;2022-12-18T06:59:52;-3.40;98.20
4374;DHT22;2201;51.100;6.814;2022-12-18T07:02:19;-3.40;98.20
4374;DHT22;2201;51.100;6.814;2022-12-18T07:04:46;-3.40;98.20
4374;DHT22;2201;51.100;6.814;2022-12-18T07:07:14;-3.40;98.20
4374;DHT22;2201;51.100;6.814;2022-12-18T07:09:41;-3.40;98.20
4374;DHT22;2201;51.100;6.814;2022-12-18T07:12:08;-3.40;98.20
4374;DHT22;2201;51.100;6.814;2022-12-18T07:14:35;-3.50;98.20
4374;DHT22;2201;51.100;6.814;2022-12-18T07:17:01;-3.50;98.20
4374;DHT22;2201;51.100;6.814;2022-12-18T07:19:29;-3.50;98.20
4374;DHT22;2201;51.100;6.814;2022-12-18T07:21:56;-3.50;98.20
4374;DHT22;2201;51.100;6.814;2022-12-18T07:24:24;-3.50;98.20
4374;DHT22;2201;51.100;6.814;2022-12-18T07:26:50;-3.50;98.20
4374;DHT22;2201;51.100;6.814;2022-12-18T07:29:17;-3.50;98.20
4374;DHT22;2201;51.100;6.814;2022-12-18T07:31:44;-3.50;98.20
4374;DHT22;2201;51.100;6.814;2022-12-18T07:34:11;-3.50;98.20
4374;DHT22;2201;51.100;6.814;2022-12-18T07:36:38;-3.50;98.20
4374;DHT22;2201;51.100;6.814;2022-12-18T07:39:04;-3.60;98.20
4374;DHT22;2201;51.100;6.814;2022-12-18T07:41:33;-3.60;98.20
4374;DHT22;2201;51.100;6.814;2022-12-18T07:44:00;-3.60;98.20
4374;DHT22;2201;51.100;6.814;2022-12-18T07:46:26;-3.60;98.20
4374;DHT22;2201;51.100;6.814;2022-12-18T07:48:53;-3.50;98.20
4374;DHT22;2201;51.100;6.814;2022-12-18T07:51:20;-3.50;98.20
4374;DHT22;2201;51.100;6.814;2022-12-18T07:53:47;-3.50;98.20
4374;DHT22;2201;51.100;6.814;2022-12-18T07:56:14;-3.50;98.20
4374;DHT22;2201;51.100;6.814;2022-12-18T07:58:42;-3.50;98.20
4374;DHT22;2201;51.100;6.814;2022-12-18T08:01:11;-3.40;98.20
4374;DHT22;2201;51.100;6.814;2022-12-18T08:03:39;-3.40;98.20
4374;DHT22;2201;51.100;6.814;2022-12-18T08:06:07;-3.30;98.20
4374;DHT22;2201;51.100;6.814;2022-12-18T08:08:35;-3.30;98.20
4374;DHT22;2201;51.100;6.814;2022-12-18T08:11:02;-3.20;98.20
4374;DHT22;2201;51.100;6.814;2022-12-18T08:13:28;-3.20;98.20
4374;DHT22;2201;51.100;6.814;2022-12-18T08:15:58;-3.10;98.20
4374;DHT22;2201;51.100;6.814;2022-12-18T08:18:25;-3.10;98.20
4374;DHT22;2201;51.100;6.814;2022-12-18T08:20:51;-3.10;98.20
4374;DHT22;2201;51.100;6.814;2022-12-18T08:23:18;-3.00;98.20
4374;DHT22;2201;51.100;6.814;2022-12-18T08:25:45;-3.00;98.20
4374;DHT22;2201;51.100;6.814;2022-12-18T08:28:12;-3.00;98.20
4374;DHT22;2201;51.100;6.814;2022-12-18T08:30:39;-2.90;98.20
4374;DHT22;2201;51.100;6.814;2022-12-18T08:33:07;-2.90;98.20
4374;DHT22;2201;51.100;6.814;2022-12-18T08:35:35;-2.90;98.20
4374;DHT22;2201;51.100;6.814;2022-12-18T08:38:02;-2.90;98.20
4374;DHT22;2201;51.100;6.814;2022-12-18T08:40:29;-2.90;98.20
4374;DHT22;2201;51.100;6.814;2022-12-18T08:42:56;-2.80;98.20
4374;DHT22;2201;51.100;6.814;2022-12-18T08:45:55;-2.80;98.20
4374;DHT22;2201;51.100;6.814;2022-12-18T08:48:23;-2.70;98.20
4374;DHT22;2201;51.100;6.814;2022-12-18T08:50:54;-2.60;98.20
4374;DHT22;2201;51.100;6.814;2022-12-18T08:53:25;-2.50;98.20
4374;DHT22;2201;51.100;6.814;2022-12-18T08:55:52;-2.40;98.20
4374;DHT22;2201;51.100;6.814;2022-12-18T08:58:20;-2.30;98.20
4374;DHT22;2201;51.100;6.814;2022-12-18T09:00:47;-2.30;98.20
4374;DHT22;2201;51.100;6.814;2022-12-18T09:03:14;-2.20;98.20
4374;DHT22;2201;51.100;6.814;2022-12-18T09:05:45;-2.10;98.20
4374;DHT22;2201;51.100;6.814;2022-12-18T09:08:12;-2.10;98.20
4374;DHT22;2201;51.100;6.814;2022-12-18T09:10:41;-2.10;98.20
4374;DHT22;2201;51.100;6.814;2022-12-18T09:13:09;-2.10;98.20
4374;DHT22;2201;51.100;6.814;2022-12-18T09:15:40;-2.00;98.20
4374;DHT22;2201;51.100;6.814;2022-12-18T09:18:08;-2.00;98.20
4374;DHT22;2201;51.100;6.814;2022-12-18T09:20:35;-2.00;98.20
4374;DHT22;2201;51.100;6.814;2022-12-18T09:23:04;-2.00;98.20
4374;DHT22;2201;51.100;6.814;2022-12-18T09:25:32;-2.00;98.20
4374;DHT22;2201;51.100;6.814;2022-12-18T09:28:04;-2.00;98.20
4374;DHT22;2201;51.100;6.814;2022-12-18T09:30:32;-1.90;98.20
4374;DHT22;2201;51.100;6.814;2022-12-18T09:33:00;-1.90;98.20
4374;DHT22;2201;51.100;6.814;2022-12-18T09:35:27;-1.80;98.20
4374;DHT22;2201;51.100;6.814;2022-12-18T09:37:54;-1.80;98.20
4374;DHT22;2201;51.100;6.814;2022-12-18T09:40:25;-1.70;98.20
4374;DHT22;2201;51.100;6.814;2022-12-18T09:42:59;-1.70;98.20
4374;DHT22;2201;51.100;6.814;2022-12-18T09:45:27;-1.70;98.20
4374;DHT22;2201;51.100;6.814;2022-12-18T09:47:55;-1.60;98.20
4374;DHT22;2201;51.100;6.814;2022-12-18T09:50:26;-1.60;98.20
4374;DHT22;2201;51.100;6.814;2022-12-18T09:52:59;-1.60;98.20
4374;DHT22;2201;51.100;6.814;2022-12-18T09:55:33;-1.50;98.20
4374;DHT22;2201;51.100;6.814;2022-12-18T09:58:04;-1.50;98.20
4374;DHT22;2201;51.100;6.814;2022-12-18T10:00:32;-1.40;98.20
4374;DHT22;2201;51.100;6.814;2022-12-18T10:03:08;-1.40;98.20
4374;DHT22;2201;51.100;6.814;2022-12-18T10:05:39;-1.40;98.20
4374;DHT22;2201;51.100;6.814;2022-12-18T10:08:11;-1.30;98.20
4374;DHT22;2201;51.100;6.814;2022-12-18T10:10:46;-1.30;98.20
4374;DHT22;2201;51.100;6.814;2022-12-18T10:13:21;-1.30;98.20
4374;DHT22;2201;51.100;6.814;2022-12-18T10:16:00;-1.20;98.20
4374;DHT22;2201;51.100;6.814;2022-12-18T10:18:42;-1.20;98.20
4374;DHT22;2201;51.100;6.814;2022-12-18T10:21:17;-1.20;98.20
4374;DHT22;2201;51.100;6.814;2022-12-18T10:23:53;-1.10;98.20
4374;DHT22;2201;51.100;6.814;2022-12-18T10:26:25;-1.10;98.20
4374;DHT22;2201;51.100;6.814;2022-12-18T10:28:53;-1.00;98.20
4374;DHT22;2201;51.100;6.814;2022-12-18T10:31:23;-1.00;98.20
4374;DHT22;2201;51.100;6.814;2022-12-18T10:33:51;-0.90;98.20
4374;DHT22;2201;51.100;6.814;2022-12-18T10:36:20;-0.80;98.20
4374;DHT22;2201;51.100;6.814;2022-12-18T10:38:47;-0.80;98.20
4374;DHT22;2201;51.100;6.814;2022-12-18T10:41:26;-0.70;98.20
4374;DHT22;2201;51.100;6.814;2022-12-18T10:44:14;-0.70;98.20
4374;DHT22;2201;51.100;6.814;2022-12-18T10:46:42;-0.60;98.20
4374;DHT22;2201;51.100;6.814;2022-12-18T10:49:19;-0.60;98.20
4374;DHT22;2201;51.100;6.814;2022-12-18T10:51:47;-0.50;98.20
4374;DHT22;2201;51.100;6.814;2022-12-18T10:54:17;-0.50;98.20
4374;DHT22;2201;51.100;6.814;2022-12-18T10:56:46;-0.40;98.20
4374;DHT22;2201;51.100;6.814;2022-12-18T10:59:15;-0.40;98.20
4374;DHT22;2201;51.100;6.814;2022-12-18T11:01:49;-0.40;98.20
4374;DHT22;2201;51.100;6.814;2022-12-18T11:04:19;-0.30;98.20
4374;DHT22;2201;51.100;6.814;2022-12-18T11:06:55;-0.30;98.20
4374;DHT22;2201;51.100;6.814;2022-12-18T11:09:24;-0.30;98.20
4374;DHT22;2201;51.100;6.814;2022-12-18T11:11:54;-0.20;98.20
4374;DHT22;2201;51.100;6.814;2022-12-18T11:14:23;-0.20;98.20
4374;DHT22;2201;51.100;6.814;2022-12-18T11:16:51;-0.20;98.20
4374;DHT22;2201;51.100;6.814;2022-12-18T11:19:29;-0.20;98.20
4374;DHT22;2201;51.100;6.814;2022-12-18T11:21:57;-0.10;98.20
4374;DHT22;2201;51.100;6.814;2022-12-18T11:24:28;-0.10;98.20
4374;DHT22;2201;51.100;6.814;2022-12-18T11:26:58;-0.10;98.20
4374;DHT22;2201;51.100;6.814;2022-12-18T11:29:38;-0.10;98.20
4374;DHT22;2201;51.100;6.814;2022-12-18T11:32:32;-0.10;98.20
4374;DHT22;2201;51.100;6.814;2022-12-18T11:35:07;-0.10;98.20
4374;DHT22;2201;51.100;6.814;2022-12-18T11:37:38;-0.10;98.20
4374;DHT22;2201;51.100;6.814;2022-12-18T11:40:13;0.00;98.20
4374;DHT22;2201;51.100;6.814;2022-12-18T11:42:47;-0.10;98.20
4374;DHT22;2201;51.100;6.814;2022-12-18T11:45:28;-0.10;98.20
4374;DHT22;2201;51.100;6.814;2022-12-18T11:48:04;0.00;98.20
4374;DHT22;2201;51.100;6.814;2022-12-18T11:50:46;-0.10;98.20
4374;DHT22;2201;51.100;6.814;2022-12-18T11:53:16;-0.10;98.20
4374;DHT22;2201;51.100;6.814;2022-12-18T11:55:51;-0.10;98.20
4374;DHT22;2201;51.100;6.814;2022-12-18T11:58:38;-0.10;98.20
4374;DHT22;2201;51.100;6.814;2022-12-18T12:01:12;-0.10;98.20
4374;DHT22;2201;51.100;6.814;2022-12-18T12:06:52;0.00;98.20
4374;DHT22;2201;51.100;6.814;2022-12-18T12:09:28;0.00;98.20
4374;DHT22;2201;51.100;6.814;2022-12-18T12:12:13;0.00;98.20
4374;DHT22;2201;51.100;6.814;2022-12-18T12:14:51;0.00;98.20
4374;DHT22;2201;51.100;6.814;2022-12-18T12:17:25;0.00;98.20
4374;DHT22;2201;51.100;6.814;2022-12-18T12:19:58;-0.10;98.20
4374;DHT22;2201;51.100;6.814;2022-12-18T12:22:34;-0.10;98.20
4374;DHT22;2201;51.100;6.814;2022-12-18T12:25:23;-0.10;98.20
4374;DHT22;2201;51.100;6.814;2022-12-18T12:28:01;-0.10;98.20
4374;DHT22;2201;51.100;6.814;2022-12-18T12:30:39;-0.10;98.20
4374;DHT22;2201;51.100;6.814;2022-12-18T12:33:17;-0.10;98.20
4374;DHT22;2201;51.100;6.814;2022-12-18T12:35:55;-0.10;98.20
4374;DHT22;2201;51.100;6.814;2022-12-18T12:38:28;-0.10;98.20
4374;DHT22;2201;51.100;6.814;2022-12-18T12:41:00;-0.10;98.20
4374;DHT22;2201;51.100;6.814;2022-12-18T12:43:34;-0.10;98.20
4374;DHT22;2201;51.100;6.814;2022-12-18T12:46:04;-0.10;98.20
4374;DHT22;2201;51.100;6.814;2022-12-18T12:48:40;-0.10;98.20
4374;DHT22;2201;51.100;6.814;2022-12-18T12:51:12;-0.10;98.20
4374;DHT22;2201;51.100;6.814;2022-12-18T12:53:41;-0.10;98.20
4374;DHT22;2201;51.100;6.814;2022-12-18T12:56:10;-0.20;98.20
4374;DHT22;2201;51.100;6.814;2022-12-18T12:58:46;-0.10;98.20
4374;DHT22;2201;51.100;6.814;2022-12-18T13:01:24;-0.10;98.20
4374;DHT22;2201;51.100;6.814;2022-12-18T13:04:03;-0.10;98.20
4374;DHT22;2201;51.100;6.814;2022-12-18T13:06:38;-0.10;98.20
4374;DHT22;2201;51.100;6.814;2022-12-18T13:09:08;-0.10;98.20
4374;DHT22;2201;51.100;6.814;2022-12-18T13:11:37;-0.20;98.20
4374;DHT22;2201;51.100;6.814;2022-12-18T13:14:28;-0.10;98.20
4374;DHT22;2201;51.100;6.814;2022-12-18T13:17:31;-0.20;98.20
4374;DHT22;2201;51.100;6.814;2022-12-18T13:20:09;-0.20;98.20
4374;DHT22;2201;51.100;6.814;2022-12-18T13:22:38;-0.20;98.20
4374;DHT22;2201;51.100;6.814;2022-12-18T13:25:31;-0.10;98.20
4374;DHT22;2201;51.100;6.814;2022-12-18T13:28:01;-0.20;98.20
4374;DHT22;2201;51.100;6.814;2022-12-18T13:30:54;-0.10;98.20
4374;DHT22;2201;51.100;6.814;2022-12-18T13:33:46;-0.10;98.20
4374;DHT22;2201;51.100;6.814;2022-12-18T13:36:16;-0.10;98.20
4374;DHT22;2201;51.100;6.814;2022-12-18T13:38:44;-0.10;98.20
4374;DHT22;2201;51.100;6.814;2022-12-18T13:41:25;-0.10;98.20
4374;DHT22;2201;51.100;6.814;2022-12-18T13:43:54;0.00;98.20
4374;DHT22;2201;51.100;6.814;2022-12-18T13:46:25;0.00;98.20
4374;DHT22;2201;51.100;6.814;2022-12-18T13:49:00;0.00;98.20
4374;DHT22;2201;51.100;6.814;2022-12-18T13:51:29;0.00;98.20
4374;DHT22;2201;51.100;6.814;2022-12-18T13:54:00;-0.10;98.20
4374;DHT22;2201;51.100;6.814;2022-12-18T13:56:30;-0.10;98.20
4374;DHT22;2201;51.100;6.814;2022-12-18T13:59:08;-0.10;98.20
4374;DHT22;2201;51.100;6.814;2022-12-18T14:01:40;-0.20;98.20
4374;DHT22;2201;51.100;6.814;2022-12-18T14:04:18;-0.20;98.20
4374;DHT22;2201;51.100;6.814;2022-12-18T14:06:46;-0.20;98.20
4374;DHT22;2201;51.100;6.814;2022-12-18T14:09:15;-0.20;98.20
4374;DHT22;2201;51.100;6.814;2022-12-18T14:11:47;-0.20;98.20
4374;DHT22;2201;51.100;6.814;2022-12-18T14:14:15;-0.30;98.20
4374;DHT22;2201;51.100;6.814;2022-12-18T14:16:43;-0.30;98.20
4374;DHT22;2201;51.100;6.814;2022-12-18T14:19:14;-0.30;98.20
4374;DHT22;2201;51.100;6.814;2022-12-18T14:21:47;-0.30;98.20
4374;DHT22;2201;51.100;6.814;2022-12-18T14:24:15;-0.40;98.20
4374;DHT22;2201;51.100;6.814;2022-12-18T14:26:44;-0.40;98.20
4374;DHT22;2201;51.100;6.814;2022-12-18T14:29:21;-0.40;98.20
4374;DHT22;2201;51.100;6.814;2022-12-18T14:32:07;-0.40;98.20
4374;DHT22;2201;51.100;6.814;2022-12-18T14:34:37;-0.50;98.20
4374;DHT22;2201;51.100;6.814;2022-12-18T14:37:04;-0.50;98.20
4374;DHT22;2201;51.100;6.814;2022-12-18T14:39:32;-0.50;98.20
4374;DHT22;2201;51.100;6.814;2022-12-18T14:41:59;-0.50;98.20
4374;DHT22;2201;51.100;6.814;2022-12-18T14:44:25;-0.50;98.20
4374;DHT22;2201;51.100;6.814;2022-12-18T14:46:52;-0.50;98.20
4374;DHT22;2201;51.100;6.814;2022-12-18T14:49:23;-0.50;98.20
4374;DHT22;2201;51.100;6.814;2022-12-18T14:51:54;-0.50;98.20
4374;DHT22;2201;51.100;6.814;2022-12-18T14:54:22;-0.60;98.20
4374;DHT22;2201;51.100;6.814;2022-12-18T14:56:51;-0.60;98.20
4374;DHT22;2201;51.100;6.814;2022-12-18T14:59:23;-0.60;98.20
4374;DHT22;2201;51.100;6.814;2022-12-18T15:01:58;-0.60;98.20
4374;DHT22;2201;51.100;6.814;2022-12-18T15:04:28;-0.60;98.20
4374;DHT22;2201;51.100;6.814;2022-12-18T15:07:11;-0.60;98.20
4374;DHT22;2201;51.100;6.814;2022-12-18T15:09:40;-0.60;98.20
4374;DHT22;2201;51.100;6.814;2022-12-18T15:12:22;-0.60;98.20
4374;DHT22;2201;51.100;6.814;2022-12-18T15:14:51;-0.60;98.20
4374;DHT22;2201;51.100;6.814;2022-12-18T15:17:20;-0.60;98.20
4374;DHT22;2201;51.100;6.814;2022-12-18T15:19:48;-0.60;98.20
4374;DHT22;2201;51.100;6.814;2022-12-18T15:22:24;-0.60;98.20
4374;DHT22;2201;51.100;6.814;2022-12-18T15:24:51;-0.70;98.20
4374;DHT22;2201;51.100;6.814;2022-12-18T15:27:24;-0.60;98.20
4374;DHT22;2201;51.100;6.814;2022-12-18T15:30:18;-0.60;98.20
4374;DHT22;2201;51.100;6.814;2022-12-18T15:32:45;-0.70;98.20
4374;DHT22;2201;51.100;6.814;2022-12-18T15:35:16;-0.70;98.20
4374;DHT22;2201;51.100;6.814;2022-12-18T15:37:44;-0.70;98.20
4374;DHT22;2201;51.100;6.814;2022-12-18T15:40:15;-0.60;98.20
4374;DHT22;2201;51.100;6.814;2022-12-18T15:42:43;-0.70;98.20
4374;DHT22;2201;51.100;6.814;2022-12-18T15:45:28;-0.70;98.20
4374;DHT22;2201;51.100;6.814;2022-12-18T15:47:55;-0.70;98.20
4374;DHT22;2201;51.100;6.814;2022-12-18T15:50:22;-0.80;98.20
4374;DHT22;2201;51.100;6.814;2022-12-18T15:52:52;-0.80;98.20
4374;DHT22;2201;51.100;6.814;2022-12-18T15:55:22;-0.80;98.20
4374;DHT22;2201;51.100;6.814;2022-12-18T15:58:07;-0.80;98.20
4374;DHT22;2201;51.100;6.814;2022-12-18T16:00:36;-0.80;98.20
4374;DHT22;2201;51.100;6.814;2022-12-18T16:03:04;-0.80;98.20
4374;DHT22;2201;51.100;6.814;2022-12-18T16:05:32;-0.80;98.20
4374;DHT22;2201;51.100;6.814;2022-12-18T16:08:00;-0.90;98.20
4374;DHT22;2201;51.100;6.814;2022-12-18T16:10:27;-0.90;98.20
4374;DHT22;2201;51.100;6.814;2022-12-18T16:12:54;-0.90;98.20
4374;DHT22;2201;51.100;6.814;2022-12-18T16:15:21;-0.90;98.20
4374;DHT22;2201;51.100;6.814;2022-12-18T16:17:48;-0.90;98.20
4374;DHT22;2201;51.100;6.814;2022-12-18T16:20:16;-0.90;98.20
4374;DHT22;2201;51.100;6.814;2022-12-18T16:22:44;-0.90;98.20
4374;DHT22;2201;51.100;6.814;2022-12-18T16:25:18;-0.90;98.20
4374;DHT22;2201;51.100;6.814;2022-12-18T16:27:48;-0.90;98.20
4374;DHT22;2201;51.100;6.814;2022-12-18T16:30:16;-0.90;98.20